sensor_id;sensor_type;location;lat;lon;timestamp;temperature;humidity
63802;DHT22;49949;43.060;25.624;2023-12-07T00:01:04;3.40;99.90
63802;DHT22;49949;43.060;25.624;2023-12-07T00:03:30;3.40;99.90
63802;DHT22;49949;43.060;25.624;2023-12-07T00:05:55;3.40;99.90
63802;DHT22;49949;43.060;25.624;2023-12-07T00:08:21;3.40;99.90
63802;DHT22;49949;43.060;25.624;2023-12-07T00:10:47;3.40;99.90
63802;DHT22;49949;43.060;25.624;2023-12-07T00:13:13;3.40;99.90
63802;DHT22;49949;43.060;25.624;2023-12-07T00:15:38;3.40;99.90
63802;DHT22;49949;43.060;25.624;2023-12-07T00:18:04;3.40;99.90
63802;DHT22;49949;43.060;25.624;2023-12-07T00:20:30;3.40;99.90
63802;DHT22;49949;43.060;25.624;2023-12-07T00:22:56;3.40;99.90
63802;DHT22;49949;43.060;25.624;2023-12-07T00:25:22;3.40;99.90
63802;DHT22;49949;43.060;25.624;2023-12-07T00:27:50;3.40;99.90
63802;DHT22;49949;43.060;25.624;2023-12-07T00:30:17;3.40;99.90
63802;DHT22;49949;43.060;25.624;2023-12-07T00:32:43;3.40;99.90
63802;DHT22;49949;43.060;25.624;2023-12-07T00:35:12;3.40;99.90
63802;DHT22;49949;43.060;25.624;2023-12-07T00:37:38;3.40;99.90
63802;DHT22;49949;43.060;25.624;2023-12-07T00:40:04;3.40;99.90
63802;DHT22;49949;43.060;25.624;2023-12-07T00:42:30;3.40;99.90
63802;DHT22;49949;43.060;25.624;2023-12-07T00:44:56;3.40;99.90
63802;DHT22;49949;43.060;25.624;2023-12-07T00:47:22;3.40;99.90
63802;DHT22;49949;43.060;25.624;2023-12-07T00:49:48;3.40;99.90
63802;DHT22;49949;43.060;25.624;2023-12-07T00:52:14;3.40;99.90
63802;DHT22;49949;43.060;25.624;2023-12-07T00:54:40;3.40;99.90
63802;DHT22;49949;43.060;25.624;2023-12-07T00:57:06;3.40;99.90
63802;DHT22;49949;43.060;25.624;2023-12-07T00:59:32;3.40;99.90
63802;DHT22;49949;43.060;25.624;2023-12-07T01:02:02;3.40;99.90
63802;DHT22;49949;43.060;25.624;2023-12-07T01:04:28;3.40;99.90
63802;DHT22;49949;43.060;25.624;2023-12-07T01:06:54;3.40;99.90
63802;DHT22;49949;43.060;25.624;2023-12-07T01:09:20;3.40;99.90
63802;DHT22;49949;43.060;25.624;2023-12-07T01:11:47;3.40;99.90
63802;DHT22;49949;43.060;25.624;2023-12-07T01:14:13;3.40;99.90
63802;DHT22;49949;43.060;25.624;2023-12-07T01:16:39;3.40;99.90
63802;DHT22;49949;43.060;25.624;2023-12-07T01:19:04;3.50;99.90
63802;DHT22;49949;43.060;25.624;2023-12-07T01:21:32;3.50;99.90
63802;DHT22;49949;43.060;25.624;2023-12-07T01:23:58;3.50;99.90
63802;DHT22;49949;43.060;25.624;2023-12-07T01:26:24;3.50;99.90
63802;DHT22;49949;43.060;25.624;2023-12-07T01:28:49;3.40;99.90
63802;DHT22;49949;43.060;25.624;2023-12-07T01:31:15;3.40;99.90
63802;DHT22;49949;43.060;25.624;2023-12-07T01:33:45;3.40;99.90
63802;DHT22;49949;43.060;25.624;2023-12-07T01:36:11;3.50;99.90
63802;DHT22;49949;43.060;25.624;2023-12-07T01:38:37;3.40;99.90
63802;DHT22;49949;43.060;25.624;2023-12-07T01:41:03;3.40;99.90
63802;DHT22;49949;43.060;25.624;2023-12-07T01:43:29;3.50;99.90
63802;DHT22;49949;43.060;25.624;2023-12-07T01:45:57;3.50;99.90
63802;DHT22;49949;43.060;25.624;2023-12-07T01:48:24;3.50;99.90
63802;DHT22;49949;43.060;25.624;2023-12-07T01:50:53;3.40;99.90
63802;DHT22;49949;43.060;25.624;2023-12-07T01:53:21;3.50;99.90
63802;DHT22;49949;43.060;25.624;2023-12-07T01:55:47;3.50;99.90
63802;DHT22;49949;43.060;25.624;2023-12-07T01:58:14;3.50;99.90
63802;DHT22;49949;43.060;25.624;2023-12-07T02:00:42;3.50;99.90
63802;DHT22;49949;43.060;25.624;2023-12-07T02:03:08;3.50;99.90
63802;DHT22;49949;43.060;25.624;2023-12-07T02:05:35;3.50;99.90
63802;DHT22;49949;43.060;25.624;2023-12-07T02:08:02;3.50;99.90
63802;DHT22;49949;43.060;25.624;2023-12-07T02:10:28;3.50;99.90
63802;DHT22;49949;43.060;25.624;2023-12-07T02:12:54;3.50;99.90
63802;DHT22;49949;43.060;25.624;2023-12-07T02:15:20;3.50;99.90
63802;DHT22;49949;43.060;25.624;2023-12-07T02:20:33;3.50;99.90
63802;DHT22;49949;43.060;25.624;2023-12-07T02:23:03;3.40;99.90
63802;DHT22;49949;43.060;25.624;2023-12-07T02:28:36;3.40;99.90
63802;DHT22;49949;43.060;25.624;2023-12-07T02:31:02;3.40;99.90
63802;DHT22;49949;43.060;25.624;2023-12-07T02:33:28;3.40;99.90
63802;DHT22;49949;43.060;25.624;2023-12-07T02:35:54;3.40;99.90
63802;DHT22;49949;43.060;25.624;2023-12-07T02:38:22;3.40;99.90
63802;DHT22;49949;43.060;25.624;2023-12-07T02:40:53;3.40;99.90
63802;DHT22;49949;43.060;25.624;2023-12-07T02:43:20;3.40;99.90
63802;DHT22;49949;43.060;25.624;2023-12-07T02:45:46;3.40;99.90
63802;DHT22;49949;43.060;25.624;2023-12-07T02:48:12;3.40;99.90
63802;DHT22;49949;43.060;25.624;2023-12-07T02:50:38;3.40;99.90
63802;DHT22;49949;43.060;25.624;2023-12-07T02:53:03;3.40;99.90
63802;DHT22;49949;43.060;25.624;2023-12-07T02:55:29;3.40;99.90
63802;DHT22;49949;43.060;25.624;2023-12-07T02:57:55;3.40;99.90
63802;DHT22;49949;43.060;25.624;2023-12-07T03:00:20;3.40;99.90
63802;DHT22;49949;43.060;25.624;2023-12-07T03:02:47;3.40;99.90
63802;DHT22;49949;43.060;25.624;2023-12-07T03:05:13;3.40;99.90
63802;DHT22;49949;43.060;25.624;2023-12-07T03:07:39;3.40;99.90
63802;DHT22;49949;43.060;25.624;2023-12-07T03:10:05;3.40;99.90
63802;DHT22;49949;43.060;25.624;2023-12-07T03:12:31;3.40;99.90
63802;DHT22;49949;43.060;25.624;2023-12-07T03:14:57;3.40;99.90
63802;DHT22;49949;43.060;25.624;2023-12-07T03:17:23;3.40;99.90
63802;DHT22;49949;43.060;25.624;2023-12-07T03:19:48;3.40;99.90
63802;DHT22;49949;43.060;25.624;2023-12-07T03:22:14;3.40;99.90
63802;DHT22;49949;43.060;25.624;2023-12-07T03:24:44;3.40;99.90
63802;DHT22;49949;43.060;25.624;2023-12-07T03:27:10;3.40;99.90
63802;DHT22;49949;43.060;25.624;2023-12-07T03:29:36;3.50;99.90
63802;DHT22;49949;43.060;25.624;2023-12-07T03:32:02;3.40;99.90
63802;DHT22;49949;43.060;25.624;2023-12-07T03:34:28;3.40;99.90
63802;DHT22;49949;43.060;25.624;2023-12-07T03:36:53;3.40;99.90
63802;DHT22;49949;43.060;25.624;2023-12-07T03:39:19;3.40;99.90
63802;DHT22;49949;43.060;25.624;2023-12-07T03:41:46;3.40;99.90
63802;DHT22;49949;43.060;25.624;2023-12-07T03:44:12;3.40;99.90
63802;DHT22;49949;43.060;25.624;2023-12-07T03:46:38;3.50;99.90
63802;DHT22;49949;43.060;25.624;2023-12-07T03:49:03;3.40;99.90
63802;DHT22;49949;43.060;25.624;2023-12-07T03:51:30;3.50;99.90
63802;DHT22;49949;43.060;25.624;2023-12-07T03:53:56;3.50;99.90
63802;DHT22;49949;43.060;25.624;2023-12-07T03:56:26;3.50;99.90
63802;DHT22;49949;43.060;25.624;2023-12-07T03:58:52;3.40;99.90
63802;DHT22;49949;43.060;25.624;2023-12-07T04:01:21;3.50;99.90
63802;DHT22;49949;43.060;25.624;2023-12-07T04:03:47;3.50;99.90
63802;DHT22;49949;43.060;25.624;2023-12-07T04:06:12;3.50;99.90
63802;DHT22;49949;43.060;25.624;2023-12-07T04:08:38;3.50;99.90
63802;DHT22;49949;43.060;25.624;2023-12-07T04:11:04;3.50;99.90
63802;DHT22;49949;43.060;25.624;2023-12-07T04:13:29;3.50;99.90
63802;DHT22;49949;43.060;25.624;2023-12-07T04:15:55;3.50;99.90
63802;DHT22;49949;43.060;25.624;2023-12-07T04:18:21;3.50;99.90
63802;DHT22;49949;43.060;25.624;2023-12-07T04:20:46;3.50;99.90
63802;DHT22;49949;43.060;25.624;2023-12-07T04:23:12;3.50;99.90
63802;DHT22;49949;43.060;25.624;2023-12-07T04:25:38;3.50;99.90
63802;DHT22;49949;43.060;25.624;2023-12-07T04:28:03;3.50;99.90
63802;DHT22;49949;43.060;25.624;2023-12-07T04:30:29;3.50;99.90
63802;DHT22;49949;43.060;25.624;2023-12-07T04:32:54;3.50;99.90
63802;DHT22;49949;43.060;25.624;2023-12-07T04:35:20;3.50;99.90
63802;DHT22;49949;43.060;25.624;2023-12-07T04:37:46;3.50;99.90
63802;DHT22;49949;43.060;25.624;2023-12-07T04:40:12;3.50;99.90
63802;DHT22;49949;43.060;25.624;2023-12-07T04:42:37;3.50;99.90
63802;DHT22;49949;43.060;25.624;2023-12-07T04:45:03;3.50;99.90
63802;DHT22;49949;43.060;25.624;2023-12-07T04:47:29;3.40;99.90
63802;DHT22;49949;43.060;25.624;2023-12-07T04:49:55;3.40;99.90
63802;DHT22;49949;43.060;25.624;2023-12-07T04:52:20;3.40;99.90
63802;DHT22;49949;43.060;25.624;2023-12-07T04:54:46;3.40;99.90
63802;DHT22;49949;43.060;25.624;2023-12-07T04:57:12;3.20;99.90
63802;DHT22;49949;43.060;25.624;2023-12-07T04:59:37;3.10;99.90
63802;DHT22;49949;43.060;25.624;2023-12-07T05:02:03;3.00;99.90
63802;DHT22;49949;43.060;25.624;2023-12-07T05:04:29;3.00;99.90
63802;DHT22;49949;43.060;25.624;2023-12-07T05:06:55;3.00;99.90
63802;DHT22;49949;43.060;25.624;2023-12-07T05:09:20;3.00;99.90
63802;DHT22;49949;43.060;25.624;2023-12-07T05:11:47;3.10;99.90
63802;DHT22;49949;43.060;25.624;2023-12-07T05:14:12;3.10;99.90
63802;DHT22;49949;43.060;25.624;2023-12-07T05:16:38;3.00;99.90
63802;DHT22;49949;43.060;25.624;2023-12-07T05:19:04;3.00;99.90
63802;DHT22;49949;43.060;25.624;2023-12-07T05:21:29;2.90;99.90
63802;DHT22;49949;43.060;25.624;2023-12-07T05:23:55;2.90;99.90
63802;DHT22;49949;43.060;25.624;2023-12-07T05:26:21;3.00;99.90
63802;DHT22;49949;43.060;25.624;2023-12-07T05:28:47;3.10;99.90
63802;DHT22;49949;43.060;25.624;2023-12-07T05:31:17;3.10;99.90
63802;DHT22;49949;43.060;25.624;2023-12-07T05:33:42;3.00;99.90
63802;DHT22;49949;43.060;25.624;2023-12-07T05:36:08;3.00;99.90
63802;DHT22;49949;43.060;25.624;2023-12-07T05:38:34;3.00;99.90
63802;DHT22;49949;43.060;25.624;2023-12-07T05:41:00;3.00;99.90
63802;DHT22;49949;43.060;25.624;2023-12-07T05:43:25;3.00;99.90
63802;DHT22;49949;43.060;25.624;2023-12-07T05:45:51;3.00;99.90
63802;DHT22;49949;43.060;25.624;2023-12-07T05:48:17;3.00;99.90
63802;DHT22;49949;43.060;25.624;2023-12-07T05:50:42;3.10;99.90
63802;DHT22;49949;43.060;25.624;2023-12-07T05:53:08;3.10;99.90
63802;DHT22;49949;43.060;25.624;2023-12-07T05:55:34;3.20;99.90
63802;DHT22;49949;43.060;25.624;2023-12-07T05:58:00;3.20;99.90
63802;DHT22;49949;43.060;25.624;2023-12-07T06:00:25;3.10;99.90
63802;DHT22;49949;43.060;25.624;2023-12-07T06:02:51;3.10;99.90
63802;DHT22;49949;43.060;25.624;2023-12-07T06:05:17;3.10;99.90
63802;DHT22;49949;43.060;25.624;2023-12-07T06:07:43;3.10;99.90
63802;DHT22;49949;43.060;25.624;2023-12-07T06:10:09;3.10;99.90
63802;DHT22;49949;43.060;25.624;2023-12-07T06:12:35;3.10;99.90
63802;DHT22;49949;43.060;25.624;2023-12-07T06:15:00;3.00;99.90
63802;DHT22;49949;43.060;25.624;2023-12-07T06:17:26;3.10;99.90
63802;DHT22;49949;43.060;25.624;2023-12-07T06:19:52;3.10;99.90
63802;DHT22;49949;43.060;25.624;2023-12-07T06:22:18;3.20;99.90
63802;DHT22;49949;43.060;25.624;2023-12-07T06:24:44;3.20;99.90
63802;DHT22;49949;43.060;25.624;2023-12-07T06:27:10;3.20;99.90
63802;DHT22;49949;43.060;25.624;2023-12-07T06:29:36;3.10;99.90
63802;DHT22;49949;43.060;25.624;2023-12-07T06:32:01;3.20;99.90
63802;DHT22;49949;43.060;25.624;2023-12-07T06:34:27;3.20;99.90
63802;DHT22;49949;43.060;25.624;2023-12-07T06:36:53;3.30;99.90
63802;DHT22;49949;43.060;25.624;2023-12-07T06:39:19;3.30;99.90
63802;DHT22;49949;43.060;25.624;2023-12-07T06:41:45;3.30;99.90
63802;DHT22;49949;43.060;25.624;2023-12-07T06:44:10;3.20;99.90
63802;DHT22;49949;43.060;25.624;2023-12-07T06:46:36;3.20;99.90
63802;DHT22;49949;43.060;25.624;2023-12-07T06:49:02;3.20;99.90
63802;DHT22;49949;43.060;25.624;2023-12-07T06:51:28;3.20;99.90
63802;DHT22;49949;43.060;25.624;2023-12-07T06:53:53;3.30;99.90
63802;DHT22;49949;43.060;25.624;2023-12-07T06:56:19;3.30;99.90
63802;DHT22;49949;43.060;25.624;2023-12-07T06:58:45;3.30;99.90
63802;DHT22;49949;43.060;25.624;2023-12-07T07:01:10;3.30;99.90
63802;DHT22;49949;43.060;25.624;2023-12-07T07:03:36;3.40;99.90
63802;DHT22;49949;43.060;25.624;2023-12-07T07:06:01;3.40;99.90
63802;DHT22;49949;43.060;25.624;2023-12-07T07:08:27;3.30;99.90
63802;DHT22;49949;43.060;25.624;2023-12-07T07:10:54;3.30;99.90
63802;DHT22;49949;43.060;25.624;2023-12-07T07:13:19;3.30;99.90
63802;DHT22;49949;43.060;25.624;2023-12-07T07:15:46;3.40;99.90
63802;DHT22;49949;43.060;25.624;2023-12-07T07:18:13;3.40;99.90
63802;DHT22;49949;43.060;25.624;2023-12-07T07:20:39;3.50;99.90
63802;DHT22;49949;43.060;25.624;2023-12-07T07:23:05;3.50;99.90
63802;DHT22;49949;43.060;25.624;2023-12-07T07:25:30;3.50;99.90
63802;DHT22;49949;43.060;25.624;2023-12-07T07:27:56;3.50;99.90
63802;DHT22;49949;43.060;25.624;2023-12-07T07:30:22;3.50;99.90
63802;DHT22;49949;43.060;25.624;2023-12-07T07:32:47;3.50;99.90
63802;DHT22;49949;43.060;25.624;2023-12-07T07:35:14;3.40;99.90
63802;DHT22;49949;43.060;25.624;2023-12-07T07:37:40;3.50;99.90
63802;DHT22;49949;43.060;25.624;2023-12-07T07:40:08;3.50;99.90
63802;DHT22;49949;43.060;25.624;2023-12-07T07:42:39;3.60;99.90
63802;DHT22;49949;43.060;25.624;2023-12-07T07:45:06;3.60;99.90
63802;DHT22;49949;43.060;25.624;2023-12-07T07:47:32;3.60;99.90
63802;DHT22;49949;43.060;25.624;2023-12-07T07:49:58;3.60;99.90
63802;DHT22;49949;43.060;25.624;2023-12-07T07:52:24;3.50;99.90
63802;DHT22;49949;43.060;25.624;2023-12-07T07:54:50;3.50;99.90
63802;DHT22;49949;43.060;25.624;2023-12-07T07:57:15;3.60;99.90
63802;DHT22;49949;43.060;25.624;2023-12-07T07:59:41;3.60;99.90
63802;DHT22;49949;43.060;25.624;2023-12-07T08:02:07;3.70;99.90
63802;DHT22;49949;43.060;25.624;2023-12-07T08:04:32;3.60;99.90
63802;DHT22;49949;43.060;25.624;2023-12-07T08:06:58;3.60;99.90
63802;DHT22;49949;43.060;25.624;2023-12-07T08:09:24;3.60;99.90
63802;DHT22;49949;43.060;25.624;2023-12-07T08:11:49;3.70;99.90
63802;DHT22;49949;43.060;25.624;2023-12-07T08:14:15;3.70;99.90
63802;DHT22;49949;43.060;25.624;2023-12-07T08:16:47;3.60;99.90
63802;DHT22;49949;43.060;25.624;2023-12-07T08:19:13;3.70;99.90
63802;DHT22;49949;43.060;25.624;2023-12-07T08:21:39;3.70;99.90
63802;DHT22;49949;43.060;25.624;2023-12-07T08:24:04;3.70;99.90
63802;DHT22;49949;43.060;25.624;2023-12-07T08:26:31;3.80;99.90
63802;DHT22;49949;43.060;25.624;2023-12-07T08:28:57;3.70;99.90
63802;DHT22;49949;43.060;25.624;2023-12-07T08:31:23;3.70;99.90
63802;DHT22;49949;43.060;25.624;2023-12-07T08:33:50;3.70;99.90
63802;DHT22;49949;43.060;25.624;2023-12-07T08:36:16;3.70;99.90
63802;DHT22;49949;43.060;25.624;2023-12-07T08:38:42;3.70;99.90
63802;DHT22;49949;43.060;25.624;2023-12-07T08:41:08;3.80;99.90
63802;DHT22;49949;43.060;25.624;2023-12-07T08:43:33;3.70;99.90
63802;DHT22;49949;43.060;25.624;2023-12-07T08:45:59;3.70;99.90
63802;DHT22;49949;43.060;25.624;2023-12-07T08:48:25;3.70;99.90
63802;DHT22;49949;43.060;25.624;2023-12-07T08:50:51;3.70;99.90
63802;DHT22;49949;43.060;25.624;2023-12-07T08:53:17;3.70;99.90
63802;DHT22;49949;43.060;25.624;2023-12-07T08:55:42;3.70;99.90
63802;DHT22;49949;43.060;25.624;2023-12-07T08:58:08;3.70;99.90
63802;DHT22;49949;43.060;25.624;2023-12-07T09:00:36;3.70;99.90
63802;DHT22;49949;43.060;25.624;2023-12-07T09:03:01;3.80;99.90
63802;DHT22;49949;43.060;25.624;2023-12-07T09:05:28;3.80;99.90
63802;DHT22;49949;43.060;25.624;2023-12-07T09:07:54;3.70;99.90
63802;DHT22;49949;43.060;25.624;2023-12-07T09:10:20;3.70;99.90
63802;DHT22;49949;43.060;25.624;2023-12-07T09:12:45;3.80;99.90
63802;DHT22;49949;43.060;25.624;2023-12-07T09:15:11;3.80;99.90
63802;DHT22;49949;43.060;25.624;2023-12-07T09:17:38;3.90;99.90
63802;DHT22;49949;43.060;25.624;2023-12-07T09:20:05;3.90;99.90
63802;DHT22;49949;43.060;25.624;2023-12-07T09:22:32;3.90;99.90
63802;DHT22;49949;43.060;25.624;2023-12-07T09:24:58;3.90;99.90
63802;DHT22;49949;43.060;25.624;2023-12-07T09:27:23;3.90;99.90
63802;DHT22;49949;43.060;25.624;2023-12-07T09:29:49;3.90;99.90
63802;DHT22;49949;43.060;25.624;2023-12-07T09:32:16;3.80;99.90
63802;DHT22;49949;43.060;25.624;2023-12-07T09:34:42;3.80;99.90
63802;DHT22;49949;43.060;25.624;2023-12-07T09:37:10;3.80;99.90
63802;DHT22;49949;43.060;25.624;2023-12-07T09:39:36;3.80;99.90
63802;DHT22;49949;43.060;25.624;2023-12-07T09:42:02;3.80;99.90
63802;DHT22;49949;43.060;25.624;2023-12-07T09:44:28;3.90;99.90
63802;DHT22;49949;43.060;25.624;2023-12-07T09:46:54;3.90;99.90
63802;DHT22;49949;43.060;25.624;2023-12-07T09:49:21;3.80;99.90
63802;DHT22;49949;43.060;25.624;2023-12-07T09:51:47;3.80;99.90
63802;DHT22;49949;43.060;25.624;2023-12-07T09:54:13;3.90;99.90
63802;DHT22;49949;43.060;25.624;2023-12-07T09:56:39;3.80;99.90
63802;DHT22;49949;43.060;25.624;2023-12-07T09:59:06;3.80;99.90
63802;DHT22;49949;43.060;25.624;2023-12-07T10:01:32;3.80;99.90
63802;DHT22;49949;43.060;25.624;2023-12-07T10:04:19;3.70;99.90
63802;DHT22;49949;43.060;25.624;2023-12-07T10:06:46;3.70;99.90
63802;DHT22;49949;43.060;25.624;2023-12-07T10:09:16;3.70;99.90
63802;DHT22;49949;43.060;25.624;2023-12-07T10:11:44;3.70;99.90
63802;DHT22;49949;43.060;25.624;2023-12-07T10:14:10;3.70;99.90
63802;DHT22;49949;43.060;25.624;2023-12-07T10:16:37;3.70;99.90
63802;DHT22;49949;43.060;25.624;2023-12-07T10:19:16;3.70;99.90
63802;DHT22;49949;43.060;25.624;2023-12-07T10:21:44;3.70;99.90
63802;DHT22;49949;43.060;25.624;2023-12-07T10:24:10;3.80;99.90
63802;DHT22;49949;43.060;25.624;2023-12-07T10:26:37;3.70;99.90
63802;DHT22;49949;43.060;25.624;2023-12-07T10:29:07;3.70;99.90
63802;DHT22;49949;43.060;25.624;2023-12-07T10:31:33;3.70;99.90
63802;DHT22;49949;43.060;25.624;2023-12-07T10:34:00;3.80;99.90
63802;DHT22;49949;43.060;25.624;2023-12-07T10:36:26;3.70;99.90
63802;DHT22;49949;43.060;25.624;2023-12-07T10:38:53;3.70;99.90
63802;DHT22;49949;43.060;25.624;2023-12-07T10:41:20;3.80;99.90
63802;DHT22;49949;43.060;25.624;2023-12-07T10:43:52;3.90;99.90
63802;DHT22;49949;43.060;25.624;2023-12-07T10:46:21;3.90;99.90
63802;DHT22;49949;43.060;25.624;2023-12-07T10:48:48;3.80;99.90
63802;DHT22;49949;43.060;25.624;2023-12-07T10:52:00;3.90;99.90
63802;DHT22;49949;43.060;25.624;2023-12-07T10:54:07;3.80;99.90
63802;DHT22;49949;43.060;25.624;2023-12-07T10:56:44;3.80;99.90
63802;DHT22;49949;43.060;25.624;2023-12-07T10:59:10;3.80;99.90
63802;DHT22;49949;43.060;25.624;2023-12-07T11:01:40;3.90;99.90
63802;DHT22;49949;43.060;25.624;2023-12-07T11:04:11;3.90;99.90
63802;DHT22;49949;43.060;25.624;2023-12-07T11:06:37;3.90;99.90
63802;DHT22;49949;43.060;25.624;2023-12-07T11:09:07;3.90;99.90
63802;DHT22;49949;43.060;25.624;2023-12-07T11:14:06;3.90;99.90
63802;DHT22;49949;43.060;25.624;2023-12-07T11:16:36;3.80;99.90
63802;DHT22;49949;43.060;25.624;2023-12-07T11:19:03;3.80;99.90
63802;DHT22;49949;43.060;25.624;2023-12-07T11:21:30;3.90;99.90
63802;DHT22;49949;43.060;25.624;2023-12-07T11:23:59;3.90;99.90
63802;DHT22;49949;43.060;25.624;2023-12-07T11:26:26;3.90;99.90
63802;DHT22;49949;43.060;25.624;2023-12-07T11:28:52;3.90;99.90
63802;DHT22;49949;43.060;25.624;2023-12-07T11:31:21;4.00;99.90
63802;DHT22;49949;43.060;25.624;2023-12-07T11:33:47;4.00;99.90
63802;DHT22;49949;43.060;25.624;2023-12-07T11:36:13;3.90;99.90
63802;DHT22;49949;43.060;25.624;2023-12-07T11:41:42;3.90;99.90
63802;DHT22;49949;43.060;25.624;2023-12-07T11:44:10;3.90;99.90
63802;DHT22;49949;43.060;25.624;2023-12-07T11:46:37;3.90;99.90
63802;DHT22;49949;43.060;25.624;2023-12-07T11:49:03;3.90;99.90
63802;DHT22;49949;43.060;25.624;2023-12-07T11:51:29;3.90;99.90
63802;DHT22;49949;43.060;25.624;2023-12-07T11:53:55;3.90;99.90
63802;DHT22;49949;43.060;25.624;2023-12-07T11:56:21;3.90;99.90
63802;DHT22;49949;43.060;25.624;2023-12-07T11:58:47;3.90;99.90
63802;DHT22;49949;43.060;25.624;2023-12-07T12:01:13;3.90;99.90
63802;DHT22;49949;43.060;25.624;2023-12-07T12:03:39;4.00;99.90
63802;DHT22;49949;43.060;25.624;2023-12-07T12:06:06;4.00;99.90
63802;DHT22;49949;43.060;25.624;2023-12-07T12:08:33;3.90;99.90
63802;DHT22;49949;43.060;25.624;2023-12-07T12:10:59;3.90;99.90
63802;DHT22;49949;43.060;25.624;2023-12-07T12:13:29;3.90;99.90
63802;DHT22;49949;43.060;25.624;2023-12-07T12:15:56;3.80;99.90
63802;DHT22;49949;43.060;25.624;2023-12-07T12:18:22;3.80;99.90
63802;DHT22;49949;43.060;25.624;2023-12-07T12:20:50;3.80;99.90
63802;DHT22;49949;43.060;25.624;2023-12-07T12:23:16;3.80;99.90
63802;DHT22;49949;43.060;25.624;2023-12-07T12:25:42;3.80;99.90
63802;DHT22;49949;43.060;25.624;2023-12-07T12:28:08;3.80;99.90
63802;DHT22;49949;43.060;25.624;2023-12-07T12:30:35;3.90;99.90
63802;DHT22;49949;43.060;25.624;2023-12-07T12:33:02;3.90;99.90
63802;DHT22;49949;43.060;25.624;2023-12-07T12:35:28;3.80;99.90
63802;DHT22;49949;43.060;25.624;2023-12-07T12:37:55;3.70;99.90
63802;DHT22;49949;43.060;25.624;2023-12-07T12:40:22;3.70;99.90
63802;DHT22;49949;43.060;25.624;2023-12-07T12:42:49;3.70;99.90
63802;DHT22;49949;43.060;25.624;2023-12-07T12:45:16;3.70;99.90
63802;DHT22;49949;43.060;25.624;2023-12-07T12:47:42;3.70;99.90
63802;DHT22;49949;43.060;25.624;2023-12-07T12:50:09;3.60;99.90
63802;DHT22;49949;43.060;25.624;2023-12-07T12:52:35;3.70;99.90
63802;DHT22;49949;43.060;25.624;2023-12-07T12:55:02;3.70;99.90
63802;DHT22;49949;43.060;25.624;2023-12-07T12:57:28;3.70;99.90
63802;DHT22;49949;43.060;25.624;2023-12-07T12:59:54;3.70;99.90
63802;DHT22;49949;43.060;25.624;2023-12-07T13:02:20;3.70;99.90
63802;DHT22;49949;43.060;25.624;2023-12-07T13:04:46;3.60;99.90
63802;DHT22;49949;43.060;25.624;2023-12-07T13:07:13;3.60;99.90
63802;DHT22;49949;43.060;25.624;2023-12-07T13:09:39;3.50;99.90
63802;DHT22;49949;43.060;25.624;2023-12-07T13:12:05;3.50;99.90
63802;DHT22;49949;43.060;25.624;2023-12-07T13:14:32;3.50;99.90
63802;DHT22;49949;43.060;25.624;2023-12-07T13:17:01;3.50;99.90
63802;DHT22;49949;43.060;25.624;2023-12-07T13:19:27;3.50;99.90
63802;DHT22;49949;43.060;25.624;2023-12-07T13:21:53;3.50;99.90
63802;DHT22;49949;43.060;25.624;2023-12-07T13:24:19;3.50;99.90
63802;DHT22;49949;43.060;25.624;2023-12-07T13:26:44;3.50;99.90
63802;DHT22;49949;43.060;25.624;2023-12-07T13:29:10;3.50;99.90
63802;DHT22;49949;43.060;25.624;2023-12-07T13:31:36;3.50;99.90
63802;DHT22;49949;43.060;25.624;2023-12-07T13:34:02;3.50;99.90
63802;DHT22;49949;43.060;25.624;2023-12-07T13:36:27;3.40;99.90
63802;DHT22;49949;43.060;25.624;2023-12-07T13:38:57;3.30;99.90
63802;DHT22;49949;43.060;25.624;2023-12-07T13:41:23;3.40;99.90
63802;DHT22;49949;43.060;25.624;2023-12-07T13:43:49;3.40;99.90
63802;DHT22;49949;43.060;25.624;2023-12-07T13:46:18;3.40;99.90
63802;DHT22;49949;43.060;25.624;2023-12-07T13:48:44;3.30;99.90
63802;DHT22;49949;43.060;25.624;2023-12-07T13:51:10;3.30;99.90
63802;DHT22;49949;43.060;25.624;2023-12-07T13:53:36;3.30;99.90
63802;DHT22;49949;43.060;25.624;2023-12-07T13:56:03;3.30;99.90
63802;DHT22;49949;43.060;25.624;2023-12-07T13:58:30;3.30;99.90
63802;DHT22;49949;43.060;25.624;2023-12-07T14:00:56;3.30;99.90
63802;DHT22;49949;43.060;25.624;2023-12-07T14:03:21;3.20;99.90
63802;DHT22;49949;43.060;25.624;2023-12-07T14:05:48;3.30;99.90
63802;DHT22;49949;43.060;25.624;2023-12-07T14:08:14;3.30;99.90
63802;DHT22;49949;43.060;25.624;2023-12-07T14:10:40;3.20;99.90
63802;DHT22;49949;43.060;25.624;2023-12-07T14:13:06;3.20;99.90
63802;DHT22;49949;43.060;25.624;2023-12-07T14:15:31;3.20;99.90
63802;DHT22;49949;43.060;25.624;2023-12-07T14:18:01;3.30;99.90
63802;DHT22;49949;43.060;25.624;2023-12-07T14:20:28;3.20;99.90
63802;DHT22;49949;43.060;25.624;2023-12-07T14:22:54;3.20;99.90
63802;DHT22;49949;43.060;25.624;2023-12-07T14:25:20;3.20;99.90
63802;DHT22;49949;43.060;25.624;2023-12-07T14:27:46;3.20;99.90
63802;DHT22;49949;43.060;25.624;2023-12-07T14:30:12;3.20;99.90
63802;DHT22;49949;43.060;25.624;2023-12-07T14:32:38;3.20;99.90
63802;DHT22;49949;43.060;25.624;2023-12-07T14:35:07;3.20;99.90
63802;DHT22;49949;43.060;25.624;2023-12-07T14:37:32;3.30;99.90
63802;DHT22;49949;43.060;25.624;2023-12-07T14:39:58;3.30;99.90
63802;DHT22;49949;43.060;25.624;2023-12-07T14:42:24;3.30;99.90
63802;DHT22;49949;43.060;25.624;2023-12-07T14:44:49;3.30;99.90
63802;DHT22;49949;43.060;25.624;2023-12-07T14:47:15;3.20;99.90
63802;DHT22;49949;43.060;25.624;2023-12-07T14:49:41;3.30;99.90
63802;DHT22;49949;43.060;25.624;2023-12-07T14:52:07;3.20;99.90
63802;DHT22;49949;43.060;25.624;2023-12-07T14:54:35;3.20;99.90
63802;DHT22;49949;43.060;25.624;2023-12-07T14:57:01;3.10;99.90
63802;DHT22;49949;43.060;25.624;2023-12-07T14:59:28;3.10;99.90
63802;DHT22;49949;43.060;25.624;2023-12-07T15:01:54;3.10;99.90
63802;DHT22;49949;43.060;25.624;2023-12-07T15:04:20;3.10;99.90
63802;DHT22;49949;43.060;25.624;2023-12-07T15:06:46;3.00;99.90
63802;DHT22;49949;43.060;25.624;2023-12-07T15:09:12;3.00;99.90
63802;DHT22;49949;43.060;25.624;2023-12-07T15:11:39;3.00;99.90
63802;DHT22;49949;43.060;25.624;2023-12-07T15:14:05;2.90;99.90
63802;DHT22;49949;43.060;25.624;2023-12-07T15:16:31;3.00;99.90
63802;DHT22;49949;43.060;25.624;2023-12-07T15:18:58;3.00;99.90
63802;DHT22;49949;43.060;25.624;2023-12-07T15:21:23;3.00;99.90
63802;DHT22;49949;43.060;25.624;2023-12-07T15:23:50;3.00;99.90
63802;DHT22;49949;43.060;25.624;2023-12-07T15:26:16;2.90;99.90
63802;DHT22;49949;43.060;25.624;2023-12-07T15:28:42;2.90;99.90
63802;DHT22;49949;43.060;25.624;2023-12-07T15:31:08;2.90;99.90
63802;DHT22;49949;43.060;25.624;2023-12-07T15:33:34;2.90;99.90
63802;DHT22;49949;43.060;25.624;2023-12-07T15:36:01;2.90;99.90